Bellevue, NE (68147)

7:48 PM CDT on April 28, 2017 (GMT -0500)
North Bellevue/Kennedy Freeway | | Change Station

Elev 1178 ft 41.19 °N, 95.94 °W | Updated 8 seconds ago

Overcast
Overcast
40.1 °F
Feels Like 36 °F
N
5.9
Wind Variable Wind from NNE
Gusts 12.8 mph

Today
High -- | Low -- °F
--% Chance of Precip.
Yesterday
High -- | Low -- °F
Precip. -- in
Pressure 29.97 in
Visibility 9.0 miles
Clouds Scattered Clouds 800 ft
Overcast 1200 ft
Windchill 36 °F
Dew Point 40 °F
Humidity 100%
Rainfall 0.78 in
Snow Depth Not available.
6:25 AM 8:18 PM
Waxing Crescent, 9% visible
SPECI KOFF 290027Z AUTO 01007G15KT 9SM SCT008 OVC012 05/04 A2994 RMK AO2 RAE05 CIG 004 RWY30 PRESRR SLP149 $
Pressure 29.97 in
Visibility 9.0 miles
Clouds Scattered Clouds 800 ft
Overcast 1200 ft
Windchill 36 °F
Dew Point 40 °F
Humidity 100%
Rainfall 0.78 in
Snow Depth Not available.
6:25 AM 8:18 PM
Waxing Crescent, 9% visible
SPECI KOFF 290027Z AUTO 01007G15KT 9SM SCT008 OVC012 05/04 A2994 RMK AO2 RAE05 CIG 004 RWY30 PRESRR SLP149 $

Get Severe Weather Alerts

Thanks for signing up!

Be on the lookout for a verification email in your inbox.

You'll start receiving the daily forecast at 8 AM.

×

10-Day Weather Forecast

Almanac

Astronomy

Apr. 28, 2017 Rise Set
Actual Time
Civil Twilight
Nautical Twilight
Astronomical Twilight
Moon
Length of Visible Light
Length of Day
Tomorrow will be .
, % of the Moon is Illuminated

Today's Extremes

State Highs State Lows

Community

WunderPhotos

WunderBlog® & News

Nearby

Air Quality

  Air Quality AQ Index Pollutant
Not available.

Snow Depth

Station Depth Elevation

Earthquake Activity

City Distance Mag. Time & Date
Minimum magnitude displayed is 2.5.

Coastal Water Temperatures

Place Temperature

Stations

Nearby Weather Stations

Station Location Temp. Windchill Dew Point Humidity Wind Precip. Elev Updated Type
                   

Watches & Warnings

There are currently no watches in effect.